Time;durP1;ratioP1;P1;durP2;ratioP2;P2;SDS_P1;SDS_P2;PMS_P1;PMS_P2;Temp;Humidity;BMP_temperature;BMP_pressure;BME280_temperature;BME280_humidity;BME280_pressure;Samples;Min_cycle;Max_cycle;Signal;HPM_P1;HPM_P2
2021/01/28 00:00:33;;;;;;;188.23;47.53;;;;;;;6.50;100.00;99654.38;4979198;28;20208;-30
2021/01/28 00:03:19;;;;;;;170.87;45.33;;;;;;;6.51;100.00;99649.25;4977732;28;20203;-30
2021/01/28 00:06:09;;;;;;;190.43;49.07;;;;;;;6.46;100.00;99652.66;4978854;28;20203;-30
2021/01/28 00:08:55;;;;;;;190.27;48.03;;;;;;;6.47;100.00;99655.25;4978501;28;20204;-30
2021/01/28 00:11:41;;;;;;;188.57;46.87;;;;;;;6.54;100.00;99653.53;4978989;28;20215;-31
2021/01/28 00:14:28;;;;;;;198.93;50.73;;;;;;;6.54;100.00;99644.09;4979468;28;20254;-30
2021/01/28 00:17:14;;;;;;;169.70;46.63;;;;;;;6.68;100.00;99644.06;4981207;28;20518;-31
2021/01/28 00:20:00;;;;;;;169.07;44.37;;;;;;;6.50;100.00;99644.97;4982353;28;20274;-30
2021/01/28 00:22:46;;;;;;;190.03;46.53;;;;;;;6.60;100.00;99640.63;4984653;28;20195;-31
2021/01/28 00:25:33;;;;;;;192.60;48.90;;;;;;;6.70;100.00;99639.75;4978928;28;20363;-30
2021/01/28 00:28:21;;;;;;;178.03;46.60;;;;;;;6.62;100.00;99635.50;4978431;28;20200;-30
2021/01/28 00:31:08;;;;;;;192.30;49.10;;;;;;;6.43;100.00;99621.84;4978701;28;20280;-31
2021/01/28 00:33:55;;;;;;;205.00;51.27;;;;;;;6.59;100.00;99632.97;4978874;28;20484;-30
2021/01/28 00:36:41;;;;;;;202.90;47.97;;;;;;;6.56;100.00;99619.25;4978265;28;20625;-30
2021/01/28 00:39:27;;;;;;;213.00;49.50;;;;;;;6.62;100.00;99625.22;4978556;28;20711;-30
2021/01/28 00:42:12;;;;;;;245.20;55.60;;;;;;;6.47;100.00;99628.69;4978934;28;20251;-30
2021/01/28 00:44:58;;;;;;;198.67;47.00;;;;;;;6.68;100.00;99617.50;4978186;28;20479;-30
2021/01/28 00:47:46;;;;;;;206.13;50.37;;;;;;;6.59;100.00;99625.25;4978461;28;20199;-30
2021/01/28 00:50:33;;;;;;;260.63;52.43;;;;;;;6.60;100.00;99617.50;4979037;28;20305;-30
2021/01/28 00:53:23;;;;;;;243.30;53.97;;;;;;;6.64;100.00;99628.63;4978803;28;20222;-30
2021/01/28 00:56:12;;;;;;;269.73;55.63;;;;;;;6.67;100.00;99615.78;4978472;28;20223;-30
2021/01/28 00:58:58;;;;;;;215.77;50.47;;;;;;;6.73;100.00;99616.63;4978630;28;20235;-30
2021/01/28 01:01:44;;;;;;;291.50;56.90;;;;;;;6.60;100.00;99617.50;4978647;28;20199;-30
2021/01/28 01:04:31;;;;;;;295.53;58.57;;;;;;;6.48;100.00;99609.84;4978434;28;20484;-31
2021/01/28 01:07:17;;;;;;;312.60;60.23;;;;;;;6.50;100.00;99620.97;4978249;28;20286;-30
2021/01/28 01:10:05;;;;;;;251.03;51.90;;;;;;;6.72;100.00;99607.22;4978612;28;20298;-30
2021/01/28 01:12:51;;;;;;;291.60;53.53;;;;;;;6.76;100.00;99615.78;4978105;28;20223;-30
2021/01/28 01:15:38;;;;;;;315.73;56.97;;;;;;;6.59;100.00;99605.56;4980733;28;20763;-30
2021/01/28 01:18:25;;;;;;;288.13;55.53;;;;;;;6.69;100.00;99603.78;4981397;28;20235;-30
2021/01/28 01:21:13;;;;;;;302.27;56.57;;;;;;;6.60;100.00;99590.97;4982259;28;20204;-30
2021/01/28 01:23:59;;;;;;;312.63;56.57;;;;;;;6.64;100.00;99596.09;4982290;28;20258;-30
2021/01/28 01:26:45;;;;;;;292.00;52.30;;;;;;;6.87;100.00;99596.84;4981537;28;20290;-31
2021/01/28 01:29:31;;;;;;;284.60;56.93;;;;;;;6.69;100.00;99591.78;4981238;28;20302;-30
2021/01/28 01:32:16;;;;;;;263.10;53.70;;;;;;;6.69;100.00;99589.22;4982839;28;20207;-30
2021/01/28 01:35:04;;;;;;;318.27;58.70;;;;;;;6.61;100.00;99582.38;4981680;28;20211;-30
2021/01/28 01:37:53;;;;;;;327.50;58.83;;;;;;;6.71;100.00;99578.94;4981280;28;20203;-30
2021/01/28 01:40:40;;;;;;;298.03;55.13;;;;;;;6.78;100.00;99571.22;4981941;28;20351;-30
2021/01/28 01:43:27;;;;;;;313.03;58.80;;;;;;;6.49;100.00;99566.19;4982130;28;20215;-31
2021/01/28 01:46:15;;;;;;;308.53;61.00;;;;;;;6.43;100.00;99562.75;4981424;28;20274;-30
2021/01/28 01:49:06;;;;;;;329.83;58.33;;;;;;;6.71;100.00;99563.53;4981852;28;20203;-31
2021/01/28 01:51:55;;;;;;;364.90;59.90;;;;;;;6.57;100.00;99563.59;4980766;28;20227;-30
2021/01/28 01:54:45;;;;;;;277.10;54.67;;;;;;;6.67;100.00;99559.25;4981104;28;20203;-30
2021/01/28 01:57:36;;;;;;;314.97;54.97;;;;;;;6.77;100.00;99553.22;4981208;28;20490;-30
2021/01/28 02:00:22;;;;;;;289.07;56.77;;;;;;;6.60;100.00;99548.13;4982391;28;20259;-30
2021/01/28 02:03:12;;;;;;;304.33;56.30;;;;;;;6.62;100.00;99553.25;4980941;28;20195;-30
2021/01/28 02:06:08;;;;;;;264.70;54.23;;;;;;;6.76;100.00;99543.81;4981372;28;20207;-30
2021/01/28 02:08:55;;;;;;;263.60;50.63;;;;;;;6.77;100.00;99543.78;4980716;28;20487;-30
2021/01/28 02:11:43;;;;;;;298.60;52.73;;;;;;;6.79;100.00;99534.38;4981223;28;20203;-30
2021/01/28 02:14:31;;;;;;;281.10;55.00;;;;;;;6.49;100.00;99522.50;4980687;28;20202;-30
2021/01/28 02:17:20;;;;;;;302.60;57.17;;;;;;;6.39;100.00;99515.72;4980874;28;20207;-30
2021/01/28 02:20:25;;;;;;;288.43;56.20;;;;;;;6.50;100.00;99510.50;4981236;28;20235;-30
2021/01/28 02:23:19;;;;;;;269.67;51.03;;;;;;;6.61;100.00;99508.72;4980510;28;20481;-30
2021/01/28 02:26:07;;;;;;;262.37;53.27;;;;;;;6.69;100.00;99504.41;4980355;28;20287;-30
2021/01/28 02:28:53;;;;;;;292.83;53.67;;;;;;;6.70;100.00;99502.69;4980710;28;20613;-30
2021/01/28 02:31:43;;;;;;;259.13;52.17;;;;;;;6.61;100.00;99497.59;4981460;28;20472;-30
2021/01/28 02:34:31;;;;;;;312.17;57.40;;;;;;;6.50;100.00;99500.22;4980594;28;20547;-30
2021/01/28 02:37:20;;;;;;;323.57;56.27;;;;;;;6.66;100.00;99506.16;4980042;28;20350;-30
2021/01/28 02:40:08;;;;;;;362.33;61.73;;;;;;;6.41;100.00;99490.84;4981613;28;20374;-30
2021/01/28 02:42:56;;;;;;;361.27;64.90;;;;;;;6.43;100.00;99485.69;4979414;28;20267;-30
2021/01/28 02:45:42;;;;;;;347.67;63.27;;;;;;;6.57;100.00;99491.66;4980247;28;20485;-30
2021/01/28 02:48:29;;;;;;;344.80;61.33;;;;;;;6.65;100.00;99510.44;4980396;28;20612;-30
2021/01/28 02:51:15;;;;;;;358.47;58.27;;;;;;;6.56;100.00;99498.50;4982149;28;20207;-30
2021/01/28 02:54:01;;;;;;;403.03;65.93;;;;;;;6.64;100.00;99501.00;4979939;28;20203;-30
2021/01/28 02:56:48;;;;;;;380.07;66.33;;;;;;;6.73;100.00;99498.41;4980568;28;20613;-30
2021/01/28 02:59:35;;;;;;;384.47;64.63;;;;;;;6.78;100.00;99498.38;4980030;28;20235;-31
2021/01/28 03:02:21;;;;;;;379.80;63.33;;;;;;;6.66;100.00;99483.00;4980420;28;20312;-30
2021/01/28 03:05:09;;;;;;;325.23;55.70;;;;;;;6.96;100.00;99494.84;4980157;28;20203;-30
2021/01/28 03:07:55;;;;;;;367.43;58.67;;;;;;;6.97;100.00;99481.97;4980196;28;20621;-30
2021/01/28 03:10:41;;;;;;;326.53;59.07;;;;;;;6.81;100.00;99480.34;4979373;28;20227;-31
2021/01/28 03:13:28;;;;;;;344.63;57.93;;;;;;;6.72;100.00;99471.00;4980505;28;20398;-30
2021/01/28 03:16:15;;;;;;;369.33;60.37;;;;;;;6.89;100.00;99464.03;4979184;28;20196;-30
2021/01/28 03:19:01;;;;;;;335.93;57.20;;;;;;;6.77;100.00;99458.97;4980342;28;20231;-30
2021/01/28 03:21:48;;;;;;;349.47;58.87;;;;;;;6.77;100.00;99463.25;4979765;28;20245;-30
2021/01/28 03:24:34;;;;;;;355.03;58.27;;;;;;;6.83;100.00;99458.91;4979527;28;20621;-31
2021/01/28 03:27:20;;;;;;;370.13;59.00;;;;;;;6.78;100.00;99460.69;4979982;28;20290;-31
2021/01/28 03:30:11;;;;;;;349.20;58.83;;;;;;;6.69;100.00;99447.03;4980603;28;20333;-31
2021/01/28 03:32:57;;;;;;;353.17;58.70;;;;;;;6.72;100.00;99429.03;4980935;28;20650;-30
2021/01/28 03:35:44;;;;;;;389.10;59.90;;;;;;;6.73;100.00;99429.00;4980139;28;20282;-31
2021/01/28 03:38:30;;;;;;;403.97;66.33;;;;;;;6.58;100.00;99416.28;4979633;28;20633;-31
2021/01/28 03:41:16;;;;;;;422.87;62.83;;;;;;;6.48;100.00;99409.47;4979234;28;20207;-31
2021/01/28 03:44:02;;;;;;;434.27;69.60;;;;;;;6.56;100.00;99418.84;4981277;28;20332;-31
2021/01/28 03:46:48;;;;;;;441.87;70.83;;;;;;;6.54;100.00;99425.72;4979749;28;20203;-31
2021/01/28 03:49:35;;;;;;;405.37;65.60;;;;;;;6.57;100.00;99420.56;4979734;28;20235;-32
2021/01/28 03:52:21;;;;;;;376.80;62.27;;;;;;;6.67;100.00;99411.06;4979731;28;20199;-31
2021/01/28 03:55:09;;;;;;;402.60;63.20;;;;;;;6.81;100.00;99406.66;4980039;28;20200;-31
2021/01/28 03:57:56;;;;;;;379.07;60.77;;;;;;;6.81;100.00;99418.66;4979613;28;20622;-31
2021/01/28 04:00:42;;;;;;;391.73;59.43;;;;;;;6.96;100.00;99418.56;4979558;28;20610;-31
2021/01/28 04:03:29;;;;;;;388.23;60.27;;;;;;;7.00;100.00;99409.94;4979158;28;20203;-31
2021/01/28 04:06:15;;;;;;;381.17;56.67;;;;;;;6.80;100.00;99409.25;4979536;28;20290;-30
2021/01/28 04:09:01;;;;;;;385.20;61.70;;;;;;;6.76;100.00;99405.00;4979696;28;20195;-31
2021/01/28 04:11:48;;;;;;;453.80;62.50;;;;;;;6.90;100.00;99400.59;4979631;28;20200;-31
2021/01/28 04:14:35;;;;;;;430.53;67.73;;;;;;;6.50;100.00;99408.59;4979456;28;20207;-31
2021/01/28 04:17:21;;;;;;;432.80;67.00;;;;;;;6.67;100.00;99398.22;4980391;28;20215;-31
2021/01/28 04:20:08;;;;;;;391.70;60.13;;;;;;;6.61;100.00;99392.25;4978901;28;20321;-31
2021/01/28 04:22:55;;;;;;;390.33;58.50;;;;;;;6.65;100.00;99386.22;4979694;28;20203;-31
2021/01/28 04:25:41;;;;;;;447.53;61.77;;;;;;;6.69;100.00;99380.22;4979571;28;20231;-32
2021/01/28 04:28:28;;;;;;;465.40;59.20;;;;;;;6.50;100.00;99395.75;4979415;28;20636;-31
2021/01/28 04:31:13;;;;;;;582.90;70.23;;;;;;;6.45;100.00;99399.22;4978782;28;20203;-31
2021/01/28 04:33:59;;;;;;;474.83;62.60;;;;;;;6.52;100.00;99381.19;4979679;28;20207;-31
2021/01/28 04:36:46;;;;;;;611.10;65.50;;;;;;;6.74;100.00;99381.03;4979289;28;20199;-30
2021/01/28 04:39:33;;;;;;;770.03;87.17;;;;;;;6.36;100.00;99381.31;4978562;28;20231;-31
2021/01/28 04:42:23;;;;;;;525.33;62.17;;;;;;;6.74;100.00;99381.03;4979051;28;20200;-31
2021/01/28 04:45:12;;;;;;;559.37;63.50;;;;;;;6.70;100.00;99374.22;4978961;28;20346;-31
2021/01/28 04:48:01;;;;;;;581.40;64.80;;;;;;;6.75;100.00;99372.47;4978994;28;20203;-31
2021/01/28 04:50:49;;;;;;;531.77;63.97;;;;;;;6.75;100.00;99368.19;4980968;28;20552;-31
2021/01/28 04:53:38;;;;;;;528.60;60.10;;;;;;;6.76;100.00;99359.59;4983812;28;20307;-32
2021/01/28 04:56:27;;;;;;;697.57;69.83;;;;;;;6.76;100.00;99356.19;4982331;28;20619;-31
2021/01/28 04:59:17;;;;;;;526.87;65.03;;;;;;;6.70;100.00;99353.66;4982301;28;20230;-31
2021/01/28 05:02:07;;;;;;;665.27;68.67;;;;;;;6.71;100.00;99352.78;4982405;28;20275;-31
2021/01/28 05:04:56;;;;;;;591.53;65.90;;;;;;;6.64;100.00;99349.41;4982224;28;20223;-31
2021/01/28 05:07:42;;;;;;;560.20;70.83;;;;;;;6.47;100.00;99344.41;4983712;28;20196;-31
2021/01/28 05:10:41;;;;;;;612.60;69.50;;;;;;;6.67;100.00;99339.09;4982489;28;20517;-31
2021/01/28 05:13:31;;;;;;;514.63;57.53;;;;;;;6.77;100.00;99330.47;4982669;28;20220;-31
2021/01/28 05:16:26;;;;;;;551.87;61.33;;;;;;;6.56;100.00;99330.66;4983005;28;20199;-31
2021/01/28 05:19:31;;;;;;;479.93;62.83;;;;;;;6.67;100.00;99330.53;4982694;28;20239;-31
2021/01/28 05:22:21;;;;;;;551.70;66.40;;;;;;;6.56;100.00;99336.63;4982457;28;20497;-31
2021/01/28 05:25:14;;;;;;;133.90;30.57;;;;;;;6.42;100.00;99323.00;4982138;28;20505;-31
2021/01/28 05:28:16;;;;;;;71.27;17.33;;;;;;;6.45;100.00;99317.88;4982066;28;20199;-31
2021/01/28 05:31:04;;;;;;;50.27;14.73;;;;;;;6.34;100.00;99319.66;4983444;28;20478;-31
2021/01/28 05:33:50;;;;;;;57.80;14.77;;;;;;;6.34;100.00;99309.41;4982138;28;20207;-31
2021/01/28 05:36:41;;;;;;;63.20;17.43;;;;;;;6.60;100.00;99301.47;4981425;28;20207;-31
2021/01/28 05:39:32;;;;;;;78.77;20.30;;;;;;;6.38;100.00;99284.56;4981450;28;20230;-31
2021/01/28 05:42:25;;;;;;;55.23;15.63;;;;;;;6.70;100.00;99284.25;4982331;28;20206;-31
2021/01/28 05:45:34;;;;;;;37.90;13.40;;;;;;;5.75;100.00;99276.38;4981763;28;20483;-31
2021/01/28 05:48:28;;;;;;;39.43;12.87;;;;;;;5.83;100.00;99265.19;4981549;28;20206;-31
2021/01/28 05:51:16;;;;;;;21.63;10.40;;;;;;;5.66;100.00;99261.00;4982224;28;20629;-31
2021/01/28 05:54:05;;;;;;;32.70;10.63;;;;;;;5.67;100.00;99243.06;4983624;28;20483;-31
2021/01/28 05:56:58;;;;;;;17.47;7.33;;;;;;;5.43;100.00;99236.31;4981134;28;20718;-31
2021/01/28 05:59:51;;;;;;;15.23;8.00;;;;;;;5.40;100.00;99233.78;4980940;28;20231;-30
2021/01/28 06:02:49;;;;;;;19.73;8.70;;;;;;;5.43;100.00;99222.66;4980786;28;20212;-31
2021/01/28 06:05:51;;;;;;;17.57;8.30;;;;;;;5.40;100.00;99215.81;4981852;28;20610;-30
2021/01/28 06:08:51;;;;;;;20.80;7.33;;;;;;;5.36;100.00;99215.88;4981565;28;20698;-31
2021/01/28 06:11:51;;;;;;;22.53;8.53;;;;;;;5.35;100.00;99198.78;4983110;28;20243;-31
2021/01/28 06:14:50;;;;;;;15.93;8.30;;;;;;;5.35;100.00;99198.78;4981912;28;20609;-30
2021/01/28 06:17:52;;;;;;;18.27;8.97;;;;;;;5.37;100.00;99208.19;4981956;28;20222;-31
2021/01/28 06:21:01;;;;;;;20.23;9.33;;;;;;;5.42;100.00;99192.75;4980867;28;20227;-31
2021/01/28 06:24:08;;;;;;;17.97;8.77;;;;;;;5.41;100.00;99188.47;4981886;28;20200;-31
2021/01/28 06:27:08;;;;;;;19.77;9.73;;;;;;;5.39;100.00;99182.53;4981805;28;20194;-32
2021/01/28 06:30:13;;;;;;;23.60;9.40;;;;;;;5.25;100.00;99180.00;4981142;28;20510;-30
2021/01/28 06:33:31;;;;;;;23.53;10.03;;;;;;;5.21;100.00;99178.31;4980762;28;20293;-30
2021/01/28 06:36:32;;;;;;;32.20;11.23;;;;;;;5.25;100.00;99171.47;4979877;28;20223;-31
2021/01/28 06:39:23;;;;;;;23.23;10.40;;;;;;;5.18;100.00;99170.66;4980653;28;20230;-31
2021/01/28 06:42:20;;;;;;;27.80;11.70;;;;;;;5.28;100.00;99174.88;4981248;28;20199;-31
2021/01/28 06:45:11;;;;;;;30.23;11.70;;;;;;;5.35;100.00;99173.13;4981299;28;20432;-30
2021/01/28 06:48:03;;;;;;;29.83;11.70;;;;;;;5.52;100.00;99167.06;4980531;28;20203;-31
2021/01/28 06:50:59;;;;;;;30.13;13.43;;;;;;;5.58;100.00;99162.75;4980191;28;20460;-30
2021/01/28 06:53:51;;;;;;;34.50;13.27;;;;;;;5.55;100.00;99155.91;4965604;28;20501;-31
2021/01/28 06:56:43;;;;;;;29.67;12.23;;;;;;;5.50;100.00;99148.25;4962124;29;20308;-31
2021/01/28 06:59:42;;;;;;;31.67;12.40;;;;;;;5.60;100.00;99153.31;4960887;29;20626;-30
2021/01/28 07:02:41;;;;;;;29.63;12.10;;;;;;;5.49;100.00;99145.69;4961313;29;20360;-30
2021/01/28 07:05:43;;;;;;;32.97;11.17;;;;;;;5.57;100.00;99143.09;4962506;29;20212;-30
2021/01/28 07:09:02;;;;;;;40.27;12.03;;;;;;;5.46;100.00;99143.16;4961412;29;20343;-30
2021/01/28 07:11:54;;;;;;;34.63;13.97;;;;;;;5.46;100.00;99131.16;4961557;29;20308;-30
2021/01/28 07:14:40;;;;;;;45.50;14.37;;;;;;;5.40;100.00;99123.50;4965031;29;20503;-31
2021/01/28 07:17:31;;;;;;;44.30;14.33;;;;;;;5.41;100.00;99121.81;4960584;29;20208;-30
2021/01/28 07:20:30;;;;;;;41.67;16.17;;;;;;;5.49;100.00;99122.63;4960322;29;20637;-30
2021/01/28 07:23:25;;;;;;;50.90;17.00;;;;;;;5.53;100.00;99119.16;4960633;29;20490;-31
2021/01/28 07:26:15;;;;;;;45.37;16.00;;;;;;;5.43;100.00;99123.50;4960610;28;20204;-30
2021/01/28 07:29:39;;;;;;;46.50;16.53;;;;;;;5.39;100.00;99109.03;4959736;29;20644;-30
2021/01/28 07:32:51;;;;;;;43.57;14.00;;;;;;;5.32;100.00;99111.63;4960697;29;20203;-30
2021/01/28 07:35:49;;;;;;;37.97;13.97;;;;;;;5.41;100.00;99107.25;4960314;29;20203;-31
2021/01/28 07:38:49;;;;;;;20.60;9.03;;;;;;;5.11;100.00;99097.22;4960646;29;20709;-30
2021/01/28 07:41:51;;;;;;;25.90;9.73;;;;;;;5.19;100.00;99098.03;4962624;29;20306;-30
2021/01/28 07:44:49;;;;;;;18.00;8.90;;;;;;;5.15;100.00;99096.34;4960840;29;20243;-29
2021/01/28 07:47:54;;;;;;;17.97;8.13;;;;;;;5.11;100.00;99087.81;4960707;29;20306;-30
2021/01/28 07:50:41;;;;;;;15.10;8.80;;;;;;;5.02;100.00;99081.88;4960043;29;20243;-30
2021/01/28 07:53:37;;;;;;;18.30;9.53;;;;;;;5.15;100.00;99086.94;4961301;29;20220;-30
2021/01/28 07:56:49;;;;;;;19.63;9.00;;;;;;;5.26;100.00;99076.63;4960304;29;20351;-30
2021/01/28 07:59:46;;;;;;;19.93;9.70;;;;;;;5.14;100.00;99067.31;4960184;29;20271;-30
2021/01/28 08:02:34;;;;;;;17.07;9.00;;;;;;;5.09;100.00;99058.78;4960160;29;20278;-30
2021/01/28 08:05:23;;;;;;;22.57;11.00;;;;;;;5.08;100.00;99057.09;4961712;28;20204;-30
2021/01/28 08:08:13;;;;;;;26.10;10.73;;;;;;;5.09;100.00;99056.22;4960679;29;20203;-29
2021/01/28 08:11:14;;;;;;;22.80;12.30;;;;;;;5.09;100.00;99052.81;4959075;29;20244;-30
2021/01/28 08:14:01;;;;;;;25.43;10.90;;;;;;;5.09;100.00;99048.53;4960572;29;20208;-29
2021/01/28 08:16:49;;;;;;;43.23;12.07;;;;;;;5.14;100.00;99038.25;4960656;29;20207;-29
2021/01/28 08:19:35;;;;;;;26.00;11.40;;;;;;;5.09;100.00;99025.47;4960262;29;20379;-30
2021/01/28 08:22:22;;;;;;;38.73;13.30;;;;;;;5.08;100.00;99022.91;4961329;29;20279;-30
2021/01/28 08:25:10;;;;;;;37.40;16.40;;;;;;;5.16;100.00;99016.03;4960127;28;20199;-29
2021/01/28 08:28:05;;;;;;;42.17;16.53;;;;;;;5.20;100.00;99013.41;4959507;29;20208;-30
2021/01/28 08:31:00;;;;;;;37.33;15.53;;;;;;;5.15;100.00;99004.06;4966190;28;20279;-30
2021/01/28 08:33:48;;;;;;;40.80;15.30;;;;;;;5.08;100.00;98995.56;4963102;28;20211;-30
2021/01/28 08:36:47;;;;;;;58.80;22.43;;;;;;;5.20;100.00;98984.38;4960196;29;20203;-29
2021/01/28 08:39:35;;;;;;;42.87;18.23;;;;;;;5.26;100.00;98978.34;4960058;29;20231;-29
2021/01/28 08:42:24;;;;;;;47.53;17.63;;;;;;;5.20;100.00;98976.69;4960170;29;20204;-30
2021/01/28 08:45:23;;;;;;;50.80;19.67;;;;;;;5.36;100.00;98983.41;4961124;29;20444;-30
2021/01/28 08:48:15;;;;;;;63.43;23.23;;;;;;;5.28;100.00;98971.50;4961289;29;20208;-30
2021/01/28 08:51:09;;;;;;;69.23;27.33;;;;;;;5.38;100.00;98975.69;4960100;29;20220;-30
2021/01/28 08:54:00;;;;;;;62.83;23.90;;;;;;;5.31;100.00;98968.91;4961178;29;20535;-30
2021/01/28 08:56:49;;;;;;;83.67;29.83;;;;;;;5.50;100.00;98962.75;4960289;29;20577;-29
2021/01/28 08:59:41;;;;;;;74.07;27.73;;;;;;;5.57;100.00;98964.41;4960026;29;20231;-29
2021/01/28 09:02:31;;;;;;;76.93;27.80;;;;;;;5.40;100.00;98956.84;4959365;29;20204;-29
2021/01/28 09:05:25;;;;;;;77.50;28.63;;;;;;;5.48;100.00;98951.66;4959646;29;20204;-30
2021/01/28 09:08:26;;;;;;;82.53;31.80;;;;;;;5.39;100.00;98933.81;4958353;29;20209;-29
2021/01/28 09:11:35;;;;;;;85.80;30.90;;;;;;;5.59;100.00;98931.03;4966066;28;20643;-29
2021/01/28 09:14:35;;;;;;;93.57;32.67;;;;;;;5.64;100.00;98929.25;4959887;29;20201;-29
2021/01/28 09:17:28;;;;;;;81.03;31.80;;;;;;;5.40;100.00;98930.34;4965476;28;20258;-29
2021/01/28 09:20:28;;;;;;;70.60;30.70;;;;;;;5.58;100.00;98927.63;4978526;28;20283;-29
2021/01/28 09:23:17;;;;;;;92.63;33.43;;;;;;;5.48;100.00;98916.59;4977937;28;20623;-30
2021/01/28 09:26:20;;;;;;;72.80;30.63;;;;;;;5.41;100.00;98909.81;4979655;28;20488;-29
2021/01/28 09:29:14;;;;;;;66.23;29.43;;;;;;;5.43;100.00;98914.94;4976576;28;20284;-29
2021/01/28 09:32:06;;;;;;;70.07;30.63;;;;;;;5.49;100.00;98908.03;4977308;28;20617;-29
2021/01/28 09:35:08;;;;;;;71.30;29.43;;;;;;;5.50;100.00;98908.91;4978305;28;20207;-28
2021/01/28 09:38:06;;;;;;;68.03;30.37;;;;;;;5.45;100.00;98911.50;4981794;28;20199;-30
2021/01/28 09:41:10;;;;;;;67.60;29.33;;;;;;;5.41;100.00;98901.28;4981987;28;20234;-30
2021/01/28 09:43:56;;;;;;;73.57;37.67;;;;;;;5.37;100.00;98907.34;4982364;28;20203;-30
2021/01/28 09:46:42;;;;;;;80.30;45.13;;;;;;;5.41;100.00;98903.84;4981967;28;20207;-30
2021/01/28 09:49:30;;;;;;;63.97;28.93;;;;;;;5.42;100.00;98900.41;4979278;28;20203;-30
2021/01/28 09:52:39;;;;;;;57.67;26.57;;;;;;;5.37;100.00;98895.34;4982069;28;20206;-30
2021/01/28 09:55:30;;;;;;;65.80;30.50;;;;;;;5.52;100.00;98899.47;4982782;28;20199;-29
2021/01/28 09:58:16;;;;;;;53.83;25.93;;;;;;;5.56;100.00;98890.88;4982177;28;20199;-30
2021/01/28 10:01:07;;;;;;;60.27;28.60;;;;;;;5.56;100.00;98887.47;4982478;28;20223;-30
2021/01/28 10:03:53;;;;;;;58.57;27.73;;;;;;;5.55;100.00;98884.06;4982318;28;20208;-30
2021/01/28 10:06:39;;;;;;;58.10;28.10;;;;;;;5.57;100.00;98881.47;4981960;28;20222;-30
2021/01/28 10:09:27;;;;;;;59.93;29.57;;;;;;;5.58;100.00;98878.03;4981108;28;20266;-29
2021/01/28 10:12:26;;;;;;;72.93;36.20;;;;;;;5.66;100.00;98873.66;4981325;28;20203;-30
2021/01/28 10:15:14;;;;;;;54.57;29.30;;;;;;;5.51;100.00;98877.25;4982707;28;20303;-30
2021/01/28 10:18:04;;;;;;;56.27;27.60;;;;;;;5.49;100.00;98869.56;4981706;28;20306;-29
2021/01/28 10:20:51;;;;;;;55.00;27.83;;;;;;;5.54;100.00;98869.53;4982692;28;20372;-30
2021/01/28 10:23:37;;;;;;;58.87;27.50;;;;;;;5.57;100.00;98871.22;4981747;28;20207;-30
2021/01/28 10:26:23;;;;;;;52.27;26.20;;;;;;;5.55;100.00;98866.09;4981905;28;20267;-30
2021/01/28 10:29:14;;;;;;;57.43;27.03;;;;;;;5.51;100.00;98867.84;4982533;28;20290;-30
2021/01/28 10:32:00;;;;;;;49.77;25.23;;;;;;;5.43;100.00;98858.53;4981758;28;20203;-30
2021/01/28 10:34:46;;;;;;;48.07;24.23;;;;;;;5.44;100.00;98855.09;4981511;28;20229;-30
2021/01/28 10:37:35;;;;;;;48.50;24.27;;;;;;;5.48;100.00;98849.06;4980354;28;20355;-29
2021/01/28 10:40:22;;;;;;;43.43;22.97;;;;;;;5.34;100.00;98841.53;4982230;28;20239;-29
2021/01/28 10:43:11;;;;;;;51.63;24.73;;;;;;;5.22;100.00;98843.38;4982657;28;20210;-29
2021/01/28 10:45:59;;;;;;;49.37;25.33;;;;;;;5.25;100.00;98839.06;4981457;28;20347;-30
2021/01/28 10:48:45;;;;;;;49.83;24.77;;;;;;;5.40;100.00;98835.47;4978150;28;20320;-30
2021/01/28 10:51:31;;;;;;;50.63;24.10;;;;;;;5.30;100.00;98832.19;4980794;28;20199;-30
2021/01/28 10:54:18;;;;;;;47.50;26.73;;;;;;;5.39;100.00;98833.81;4979457;28;20219;-30
2021/01/28 10:57:04;;;;;;;46.50;26.73;;;;;;;5.39;100.00;98823.56;4981338;28;20204;-29
2021/01/28 10:59:51;;;;;;;51.87;26.93;;;;;;;5.56;100.00;98821.63;4980748;28;20374;-29
2021/01/28 11:02:38;;;;;;;43.80;24.30;;;;;;;5.36;100.00;98814.19;4979661;28;20340;-30
2021/01/28 11:05:26;;;;;;;52.07;27.80;;;;;;;5.47;100.00;98814.03;4981991;28;20207;-30
2021/01/28 11:08:13;;;;;;;43.97;25.03;;;;;;;5.49;100.00;98802.06;4981266;28;20219;-29
2021/01/28 11:10:59;;;;;;;47.77;26.27;;;;;;;5.46;100.00;98800.38;4981455;28;20239;-30
2021/01/28 11:13:52;;;;;;;49.53;25.80;;;;;;;5.51;100.00;98801.16;4980502;28;20466;-30
2021/01/28 11:16:39;;;;;;;42.83;25.10;;;;;;;5.57;100.00;98800.25;4980573;28;20204;-30
2021/01/28 11:19:27;;;;;;;50.00;26.27;;;;;;;5.52;100.00;98791.75;4979731;28;20271;-30
2021/01/28 11:22:13;;;;;;;55.43;28.87;;;;;;;5.57;100.00;98784.88;4981315;28;20441;-29
2021/01/28 11:25:06;;;;;;;55.33;26.87;;;;;;;5.48;100.00;98787.53;4980891;28;20203;-30
2021/01/28 11:27:55;;;;;;;55.03;28.67;;;;;;;5.63;100.00;98776.22;4979816;28;20206;-30
2021/01/28 11:30:44;;;;;;;46.97;26.57;;;;;;;5.58;100.00;98766.03;4980348;28;20298;-30
2021/01/28 11:33:37;;;;;;;44.47;23.17;;;;;;;5.48;100.00;98767.00;4979412;28;20281;-29
2021/01/28 11:36:24;;;;;;;50.30;25.83;;;;;;;5.52;100.00;98764.41;4979853;28;20195;-30
2021/01/28 11:39:11;;;;;;;52.70;25.30;;;;;;;5.64;100.00;98765.94;4977350;28;20270;-30
2021/01/28 11:41:57;;;;;;;43.27;20.10;;;;;;;5.46;100.00;98763.63;4963865;28;20200;-30
2021/01/28 11:44:46;;;;;;;39.80;20.80;;;;;;;5.47;100.00;98748.22;4974229;28;20211;-30
2021/01/28 11:47:32;;;;;;;41.57;20.83;;;;;;;5.65;100.00;98754.81;4980727;28;20199;-30
2021/01/28 11:50:23;;;;;;;35.57;17.33;;;;;;;5.68;100.00;98741.94;4979438;28;20338;-30
2021/01/28 11:53:10;;;;;;;35.00;17.57;;;;;;;5.95;100.00;98734.78;4967304;28;20291;-30
2021/01/28 11:55:58;;;;;;;35.27;19.43;;;;;;;5.95;100.00;98725.34;4960458;28;20211;-30
2021/01/28 11:58:46;;;;;;;31.13;16.30;;;;;;;5.67;100.00;98730.00;4961775;28;20732;-31
2021/01/28 12:01:40;;;;;;;26.50;15.73;;;;;;;5.78;100.00;98724.72;4960903;28;20251;-30
2021/01/28 12:04:34;;;;;;;21.53;14.27;;;;;;;5.58;100.00;98722.44;4979520;28;20615;-29
2021/01/28 12:07:21;;;;;;;25.87;14.27;;;;;;;5.62;100.00;98718.09;4979227;28;20222;-30
2021/01/28 12:10:15;;;;;;;30.23;16.13;;;;;;;5.96;100.00;98721.06;4961920;29;20239;-30
2021/01/28 12:13:07;;;;;;;21.80;13.57;;;;;;;5.59;100.00;98724.16;4978722;28;20207;-29
2021/01/28 12:15:52;;;;;;;24.13;15.27;;;;;;;5.73;100.00;98729.91;4978274;28;20609;-30
2021/01/28 12:18:46;;;;;;;30.63;16.67;;;;;;;5.98;100.00;98734.72;4974717;28;20339;-31
2021/01/28 12:21:44;;;;;;;19.60;13.67;;;;;;;5.85;100.00;98732.28;4970286;28;20234;-30
2021/01/28 12:24:30;;;;;;;27.57;15.47;;;;;;;5.82;100.00;98732.34;4978169;28;20198;-31
2021/01/28 12:27:18;;;;;;;21.87;14.20;;;;;;;5.76;100.00;98729.03;4982840;28;20257;-31
2021/01/28 12:30:07;;;;;;;23.03;14.63;;;;;;;5.88;100.00;98732.28;4961003;28;20203;-30
2021/01/28 12:32:53;;;;;;;19.10;13.07;;;;;;;5.66;100.00;98732.56;4971074;28;20208;-30
2021/01/28 12:35:40;;;;;;;26.07;15.97;;;;;;;6.16;100.00;98737.84;4960176;29;20253;-30
2021/01/28 12:38:25;;;;;;;22.63;13.67;;;;;;;6.17;100.00;98731.84;4961228;28;20207;-30
2021/01/28 12:41:11;;;;;;;23.60;14.67;;;;;;;5.81;100.00;98732.34;4973331;28;20375;-30
2021/01/28 12:43:58;;;;;;;24.83;16.13;;;;;;;6.00;100.00;98725.25;4966892;28;20208;-30
2021/01/28 12:46:44;;;;;;;23.97;15.30;;;;;;;5.79;100.00;98719.56;4979379;28;20262;-30
2021/01/28 12:49:31;;;;;;;23.90;13.83;;;;;;;5.75;100.00;98715.34;4979159;28;20211;-30
2021/01/28 12:52:18;;;;;;;23.53;13.93;;;;;;;5.84;100.00;98724.63;4959201;29;20206;-31
2021/01/28 12:55:04;;;;;;;17.50;13.60;;;;;;;5.85;100.00;98724.59;4962743;28;20685;-31
2021/01/28 12:57:51;;;;;;;20.40;12.83;;;;;;;5.91;100.00;98712.59;4978651;28;20199;-30
2021/01/28 13:00:38;;;;;;;24.40;14.87;;;;;;;6.03;100.00;98713.22;4971104;28;20741;-30